sensor_id;sensor_type;location;lat;lon;timestamp;P1;durP1;ratioP1;P2;durP2;ratioP2
17991;SDS011;9121;50.926;5.340;2022-11-18T00:02:21;7.87;;;2.50;;
17991;SDS011;9121;50.926;5.340;2022-11-18T00:04:48;7.17;;;2.47;;
17991;SDS011;9121;50.926;5.340;2022-11-18T00:07:15;5.23;;;2.10;;
17991;SDS011;9121;50.926;5.340;2022-11-18T00:09:42;8.63;;;1.83;;
17991;SDS011;9121;50.926;5.340;2022-11-18T00:12:08;10.87;;;2.23;;
17991;SDS011;9121;50.926;5.340;2022-11-18T00:14:53;12.03;;;2.70;;
17991;SDS011;9121;50.926;5.340;2022-11-18T00:17:21;10.17;;;2.43;;
17991;SDS011;9121;50.926;5.340;2022-11-18T00:19:48;7.77;;;2.40;;
17991;SDS011;9121;50.926;5.340;2022-11-18T00:22:15;10.20;;;2.53;;
17991;SDS011;9121;50.926;5.340;2022-11-18T00:24:42;9.60;;;2.30;;
17991;SDS011;9121;50.926;5.340;2022-11-18T00:27:09;13.20;;;2.53;;
17991;SDS011;9121;50.926;5.340;2022-11-18T00:29:36;12.23;;;2.13;;
17991;SDS011;9121;50.926;5.340;2022-11-18T00:32:03;9.50;;;2.30;;
17991;SDS011;9121;50.926;5.340;2022-11-18T00:34:31;8.97;;;2.40;;
17991;SDS011;9121;50.926;5.340;2022-11-18T00:36:58;14.77;;;7.33;;
17991;SDS011;9121;50.926;5.340;2022-11-18T00:39:25;6.33;;;2.33;;
17991;SDS011;9121;50.926;5.340;2022-11-18T00:41:52;9.67;;;2.23;;
17991;SDS011;9121;50.926;5.340;2022-11-18T00:44:36;5.33;;;2.00;;
17991;SDS011;9121;50.926;5.340;2022-11-18T00:47:04;7.00;;;2.37;;
17991;SDS011;9121;50.926;5.340;2022-11-18T00:49:32;8.67;;;2.60;;
17991;SDS011;9121;50.926;5.340;2022-11-18T00:51:59;7.40;;;2.10;;
17991;SDS011;9121;50.926;5.340;2022-11-18T00:54:26;7.30;;;2.40;;
17991;SDS011;9121;50.926;5.340;2022-11-18T00:56:53;10.63;;;2.23;;
17991;SDS011;9121;50.926;5.340;2022-11-18T00:59:20;9.57;;;2.23;;
17991;SDS011;9121;50.926;5.340;2022-11-18T01:01:47;8.90;;;2.30;;
17991;SDS011;9121;50.926;5.340;2022-11-18T01:04:14;6.97;;;2.10;;
17991;SDS011;9121;50.926;5.340;2022-11-18T01:06:42;8.60;;;1.80;;
17991;SDS011;9121;50.926;5.340;2022-11-18T01:09:09;4.77;;;2.00;;
17991;SDS011;9121;50.926;5.340;2022-11-18T01:11:36;7.07;;;2.13;;
17991;SDS011;9121;50.926;5.340;2022-11-18T01:14:22;7.37;;;2.03;;
17991;SDS011;9121;50.926;5.340;2022-11-18T01:16:52;7.60;;;2.10;;
17991;SDS011;9121;50.926;5.340;2022-11-18T01:19:19;4.80;;;1.80;;
17991;SDS011;9121;50.926;5.340;2022-11-18T01:21:48;7.60;;;1.87;;
17991;SDS011;9121;50.926;5.340;2022-11-18T01:24:15;6.73;;;1.97;;
17991;SDS011;9121;50.926;5.340;2022-11-18T01:26:42;8.37;;;1.83;;
17991;SDS011;9121;50.926;5.340;2022-11-18T01:29:09;7.93;;;2.00;;
17991;SDS011;9121;50.926;5.340;2022-11-18T01:31:36;4.77;;;1.87;;
17991;SDS011;9121;50.926;5.340;2022-11-18T01:34:03;4.33;;;1.87;;
17991;SDS011;9121;50.926;5.340;2022-11-18T01:36:30;6.80;;;1.70;;
17991;SDS011;9121;50.926;5.340;2022-11-18T01:38:59;7.67;;;1.93;;
17991;SDS011;9121;50.926;5.340;2022-11-18T01:41:26;3.93;;;2.07;;
17991;SDS011;9121;50.926;5.340;2022-11-18T01:43:53;3.70;;;1.60;;
17991;SDS011;9121;50.926;5.340;2022-11-18T01:46:22;9.13;;;1.83;;
17991;SDS011;9121;50.926;5.340;2022-11-18T01:48:51;6.50;;;1.70;;
17991;SDS011;9121;50.926;5.340;2022-11-18T01:51:22;4.60;;;2.10;;
17991;SDS011;9121;50.926;5.340;2022-11-18T01:53:52;9.77;;;1.90;;
17991;SDS011;9121;50.926;5.340;2022-11-18T01:56:27;7.90;;;1.60;;
17991;SDS011;9121;50.926;5.340;2022-11-18T01:58:59;6.53;;;1.97;;
17991;SDS011;9121;50.926;5.340;2022-11-18T02:01:30;9.17;;;1.60;;
17991;SDS011;9121;50.926;5.340;2022-11-18T02:03:58;7.30;;;1.80;;
17991;SDS011;9121;50.926;5.340;2022-11-18T02:06:25;3.67;;;1.57;;
17991;SDS011;9121;50.926;5.340;2022-11-18T02:08:52;6.47;;;1.60;;
17991;SDS011;9121;50.926;5.340;2022-11-18T02:11:20;10.10;;;1.80;;
17991;SDS011;9121;50.926;5.340;2022-11-18T02:14:06;4.53;;;1.70;;
17991;SDS011;9121;50.926;5.340;2022-11-18T02:16:40;3.40;;;1.60;;
17991;SDS011;9121;50.926;5.340;2022-11-18T02:22:36;2.93;;;1.63;;
17991;SDS011;9121;50.926;5.340;2022-11-18T02:25:19;4.67;;;1.80;;
17991;SDS011;9121;50.926;5.340;2022-11-18T02:30:56;3.70;;;1.57;;
17991;SDS011;9121;50.926;5.340;2022-11-18T02:33:27;6.70;;;1.70;;
17991;SDS011;9121;50.926;5.340;2022-11-18T02:36:03;7.23;;;1.90;;
17991;SDS011;9121;50.926;5.340;2022-11-18T02:38:35;5.93;;;1.50;;
17991;SDS011;9121;50.926;5.340;2022-11-18T02:41:08;4.37;;;1.60;;
17991;SDS011;9121;50.926;5.340;2022-11-18T02:43:39;5.47;;;1.60;;
17991;SDS011;9121;50.926;5.340;2022-11-18T02:46:12;5.77;;;2.03;;
17991;SDS011;9121;50.926;5.340;2022-11-18T02:48:43;9.37;;;1.87;;
17991;SDS011;9121;50.926;5.340;2022-11-18T02:51:14;7.33;;;1.80;;
17991;SDS011;9121;50.926;5.340;2022-11-18T02:53:43;3.83;;;1.40;;
17991;SDS011;9121;50.926;5.340;2022-11-18T02:56:13;3.97;;;1.60;;
17991;SDS011;9121;50.926;5.340;2022-11-18T02:58:41;4.50;;;1.67;;
17991;SDS011;9121;50.926;5.340;2022-11-18T03:01:14;8.23;;;2.30;;
17991;SDS011;9121;50.926;5.340;2022-11-18T03:03:45;5.67;;;1.50;;
17991;SDS011;9121;50.926;5.340;2022-11-18T03:06:15;9.20;;;2.17;;
17991;SDS011;9121;50.926;5.340;2022-11-18T03:08:54;6.37;;;1.80;;
17991;SDS011;9121;50.926;5.340;2022-11-18T03:11:28;6.17;;;2.03;;
17991;SDS011;9121;50.926;5.340;2022-11-18T03:14:04;6.63;;;1.53;;
17991;SDS011;9121;50.926;5.340;2022-11-18T03:16:36;6.00;;;2.00;;
17991;SDS011;9121;50.926;5.340;2022-11-18T03:19:11;4.83;;;1.70;;
17991;SDS011;9121;50.926;5.340;2022-11-18T03:21:48;6.53;;;1.80;;
17991;SDS011;9121;50.926;5.340;2022-11-18T03:24:23;7.93;;;1.60;;
17991;SDS011;9121;50.926;5.340;2022-11-18T03:26:59;6.40;;;2.00;;
17991;SDS011;9121;50.926;5.340;2022-11-18T03:29:33;5.80;;;2.17;;
17991;SDS011;9121;50.926;5.340;2022-11-18T03:32:05;5.90;;;1.60;;
17991;SDS011;9121;50.926;5.340;2022-11-18T03:34:38;6.13;;;1.60;;
17991;SDS011;9121;50.926;5.340;2022-11-18T03:37:09;8.30;;;1.67;;
17991;SDS011;9121;50.926;5.340;2022-11-18T03:39:40;6.90;;;2.57;;
17991;SDS011;9121;50.926;5.340;2022-11-18T03:42:11;9.17;;;1.90;;
17991;SDS011;9121;50.926;5.340;2022-11-18T03:44:42;7.30;;;2.43;;
17991;SDS011;9121;50.926;5.340;2022-11-18T03:47:20;4.70;;;1.63;;
17991;SDS011;9121;50.926;5.340;2022-11-18T03:49:51;2.53;;;1.53;;
17991;SDS011;9121;50.926;5.340;2022-11-18T03:52:24;4.20;;;1.73;;
17991;SDS011;9121;50.926;5.340;2022-11-18T03:54:56;4.30;;;1.87;;
17991;SDS011;9121;50.926;5.340;2022-11-18T03:57:29;3.87;;;1.90;;
17991;SDS011;9121;50.926;5.340;2022-11-18T04:00:05;5.97;;;2.10;;
17991;SDS011;9121;50.926;5.340;2022-11-18T04:02:35;6.53;;;2.10;;
17991;SDS011;9121;50.926;5.340;2022-11-18T04:05:03;5.90;;;1.87;;
17991;SDS011;9121;50.926;5.340;2022-11-18T04:07:33;8.17;;;1.80;;
17991;SDS011;9121;50.926;5.340;2022-11-18T04:10:05;6.47;;;2.10;;
17991;SDS011;9121;50.926;5.340;2022-11-18T04:12:37;5.87;;;2.13;;
17991;SDS011;9121;50.926;5.340;2022-11-18T04:15:09;5.40;;;1.83;;
17991;SDS011;9121;50.926;5.340;2022-11-18T04:17:39;8.30;;;2.20;;
17991;SDS011;9121;50.926;5.340;2022-11-18T04:20:10;4.90;;;2.30;;
17991;SDS011;9121;50.926;5.340;2022-11-18T04:22:40;5.27;;;2.07;;
17991;SDS011;9121;50.926;5.340;2022-11-18T04:25:07;6.53;;;2.20;;
17991;SDS011;9121;50.926;5.340;2022-11-18T04:27:34;5.10;;;2.20;;
17991;SDS011;9121;50.926;5.340;2022-11-18T04:30:01;6.40;;;2.00;;
17991;SDS011;9121;50.926;5.340;2022-11-18T04:32:28;6.50;;;2.13;;
17991;SDS011;9121;50.926;5.340;2022-11-18T04:34:56;7.80;;;2.50;;
17991;SDS011;9121;50.926;5.340;2022-11-18T04:37:23;6.03;;;2.30;;
17991;SDS011;9121;50.926;5.340;2022-11-18T04:39:50;6.37;;;2.30;;
17991;SDS011;9121;50.926;5.340;2022-11-18T04:42:17;5.57;;;2.70;;
17991;SDS011;9121;50.926;5.340;2022-11-18T04:44:44;4.57;;;2.63;;
17991;SDS011;9121;50.926;5.340;2022-11-18T04:47:11;5.97;;;2.20;;
17991;SDS011;9121;50.926;5.340;2022-11-18T04:49:38;5.13;;;2.63;;
17991;SDS011;9121;50.926;5.340;2022-11-18T04:52:06;5.80;;;2.37;;
17991;SDS011;9121;50.926;5.340;2022-11-18T04:54:33;9.50;;;2.50;;
17991;SDS011;9121;50.926;5.340;2022-11-18T04:57:00;13.13;;;2.67;;
17991;SDS011;9121;50.926;5.340;2022-11-18T04:59:27;6.13;;;2.47;;
17991;SDS011;9121;50.926;5.340;2022-11-18T05:01:55;7.43;;;2.80;;
17991;SDS011;9121;50.926;5.340;2022-11-18T05:04:23;7.50;;;2.57;;
17991;SDS011;9121;50.926;5.340;2022-11-18T05:06:52;5.70;;;2.53;;
17991;SDS011;9121;50.926;5.340;2022-11-18T05:09:20;5.17;;;2.50;;
17991;SDS011;9121;50.926;5.340;2022-11-18T05:11:47;5.93;;;2.60;;
17991;SDS011;9121;50.926;5.340;2022-11-18T05:14:32;8.33;;;3.23;;
17991;SDS011;9121;50.926;5.340;2022-11-18T05:17:00;7.30;;;3.30;;
17991;SDS011;9121;50.926;5.340;2022-11-18T05:19:28;7.70;;;3.13;;
17991;SDS011;9121;50.926;5.340;2022-11-18T05:21:55;7.80;;;3.70;;
17991;SDS011;9121;50.926;5.340;2022-11-18T05:24:23;10.07;;;4.30;;
17991;SDS011;9121;50.926;5.340;2022-11-18T05:26:50;10.83;;;3.63;;
17991;SDS011;9121;50.926;5.340;2022-11-18T05:29:17;8.50;;;3.77;;
17991;SDS011;9121;50.926;5.340;2022-11-18T05:31:45;10.70;;;3.80;;
17991;SDS011;9121;50.926;5.340;2022-11-18T05:34:13;6.93;;;4.03;;
17991;SDS011;9121;50.926;5.340;2022-11-18T05:36:40;11.87;;;4.20;;
17991;SDS011;9121;50.926;5.340;2022-11-18T05:39:07;8.07;;;4.30;;
17991;SDS011;9121;50.926;5.340;2022-11-18T05:41:35;10.07;;;4.33;;
17991;SDS011;9121;50.926;5.340;2022-11-18T05:44:19;17.17;;;5.50;;
17991;SDS011;9121;50.926;5.340;2022-11-18T05:46:46;6.63;;;3.93;;
17991;SDS011;9121;50.926;5.340;2022-11-18T05:49:13;9.03;;;4.00;;
17991;SDS011;9121;50.926;5.340;2022-11-18T05:51:40;6.60;;;3.40;;
17991;SDS011;9121;50.926;5.340;2022-11-18T05:54:07;8.17;;;3.87;;
17991;SDS011;9121;50.926;5.340;2022-11-18T05:56:39;8.57;;;3.90;;
17991;SDS011;9121;50.926;5.340;2022-11-18T05:59:09;6.83;;;3.93;;
17991;SDS011;9121;50.926;5.340;2022-11-18T06:01:37;6.73;;;3.70;;
17991;SDS011;9121;50.926;5.340;2022-11-18T06:04:10;7.90;;;3.83;;
17991;SDS011;9121;50.926;5.340;2022-11-18T06:06:43;7.90;;;4.03;;
17991;SDS011;9121;50.926;5.340;2022-11-18T06:09:12;9.03;;;4.37;;
17991;SDS011;9121;50.926;5.340;2022-11-18T06:11:45;11.10;;;4.00;;
17991;SDS011;9121;50.926;5.340;2022-11-18T06:14:15;7.37;;;4.13;;
17991;SDS011;9121;50.926;5.340;2022-11-18T06:16:48;8.20;;;4.17;;
17991;SDS011;9121;50.926;5.340;2022-11-18T06:19:17;11.87;;;4.60;;
17991;SDS011;9121;50.926;5.340;2022-11-18T06:21:44;6.17;;;4.20;;
17991;SDS011;9121;50.926;5.340;2022-11-18T06:24:12;8.07;;;4.70;;
17991;SDS011;9121;50.926;5.340;2022-11-18T06:26:39;7.73;;;5.10;;
17991;SDS011;9121;50.926;5.340;2022-11-18T06:29:09;12.90;;;5.83;;
17991;SDS011;9121;50.926;5.340;2022-11-18T06:31:38;8.87;;;5.33;;
17991;SDS011;9121;50.926;5.340;2022-11-18T06:34:05;10.90;;;4.57;;
17991;SDS011;9121;50.926;5.340;2022-11-18T06:36:32;8.13;;;4.30;;
17991;SDS011;9121;50.926;5.340;2022-11-18T06:39:01;8.93;;;5.23;;
17991;SDS011;9121;50.926;5.340;2022-11-18T06:41:29;7.43;;;3.90;;
17991;SDS011;9121;50.926;5.340;2022-11-18T06:43:56;9.17;;;4.33;;
17991;SDS011;9121;50.926;5.340;2022-11-18T06:46:25;13.13;;;4.20;;
17991;SDS011;9121;50.926;5.340;2022-11-18T06:49:09;10.47;;;4.13;;
17991;SDS011;9121;50.926;5.340;2022-11-18T06:51:36;9.73;;;4.33;;
17991;SDS011;9121;50.926;5.340;2022-11-18T06:54:04;10.43;;;3.70;;
17991;SDS011;9121;50.926;5.340;2022-11-18T06:56:31;9.93;;;4.10;;
17991;SDS011;9121;50.926;5.340;2022-11-18T06:59:00;11.57;;;3.30;;
17991;SDS011;9121;50.926;5.340;2022-11-18T07:01:30;6.07;;;3.37;;
17991;SDS011;9121;50.926;5.340;2022-11-18T07:03:59;5.73;;;3.37;;
17991;SDS011;9121;50.926;5.340;2022-11-18T07:06:27;10.87;;;4.17;;
17991;SDS011;9121;50.926;5.340;2022-11-18T07:08:55;9.97;;;3.10;;
17991;SDS011;9121;50.926;5.340;2022-11-18T07:11:24;7.43;;;3.33;;
17991;SDS011;9121;50.926;5.340;2022-11-18T07:13:52;6.43;;;3.43;;
17991;SDS011;9121;50.926;5.340;2022-11-18T07:16:20;5.37;;;3.00;;
17991;SDS011;9121;50.926;5.340;2022-11-18T07:18:50;12.57;;;4.00;;
17991;SDS011;9121;50.926;5.340;2022-11-18T07:21:20;10.60;;;3.50;;
17991;SDS011;9121;50.926;5.340;2022-11-18T07:23:48;6.97;;;3.80;;
17991;SDS011;9121;50.926;5.340;2022-11-18T07:26:15;10.13;;;3.60;;
17991;SDS011;9121;50.926;5.340;2022-11-18T07:28:42;6.17;;;3.53;;
17991;SDS011;9121;50.926;5.340;2022-11-18T07:31:10;8.33;;;4.00;;
17991;SDS011;9121;50.926;5.340;2022-11-18T07:33:38;10.60;;;3.57;;
17991;SDS011;9121;50.926;5.340;2022-11-18T07:36:08;8.97;;;4.10;;
17991;SDS011;9121;50.926;5.340;2022-11-18T07:38:37;9.73;;;3.63;;
17991;SDS011;9121;50.926;5.340;2022-11-18T07:41:05;11.20;;;4.33;;
17991;SDS011;9121;50.926;5.340;2022-11-18T07:43:34;10.47;;;3.47;;
17991;SDS011;9121;50.926;5.340;2022-11-18T07:46:08;14.40;;;3.90;;
17991;SDS011;9121;50.926;5.340;2022-11-18T07:48:36;10.37;;;3.50;;
17991;SDS011;9121;50.926;5.340;2022-11-18T07:51:03;13.37;;;4.33;;
17991;SDS011;9121;50.926;5.340;2022-11-18T07:53:32;8.43;;;3.80;;
17991;SDS011;9121;50.926;5.340;2022-11-18T07:56:00;11.47;;;3.70;;
17991;SDS011;9121;50.926;5.340;2022-11-18T07:58:27;8.27;;;3.47;;
17991;SDS011;9121;50.926;5.340;2022-11-18T08:00:54;10.20;;;3.50;;
17991;SDS011;9121;50.926;5.340;2022-11-18T08:03:23;18.53;;;3.70;;
17991;SDS011;9121;50.926;5.340;2022-11-18T08:05:52;10.23;;;3.50;;
17991;SDS011;9121;50.926;5.340;2022-11-18T08:08:20;14.37;;;4.00;;
17991;SDS011;9121;50.926;5.340;2022-11-18T08:10:48;10.30;;;3.37;;
17991;SDS011;9121;50.926;5.340;2022-11-18T08:13:15;13.30;;;3.97;;
17991;SDS011;9121;50.926;5.340;2022-11-18T08:15:42;9.27;;;3.60;;
17991;SDS011;9121;50.926;5.340;2022-11-18T08:18:09;11.50;;;3.97;;
17991;SDS011;9121;50.926;5.340;2022-11-18T08:20:36;14.95;;;4.72;;
17991;SDS011;9121;50.926;5.340;2022-11-18T08:23:03;12.03;;;3.97;;
17991;SDS011;9121;50.926;5.340;2022-11-18T08:25:30;12.00;;;4.00;;
17991;SDS011;9121;50.926;5.340;2022-11-18T08:27:59;7.83;;;3.27;;
17991;SDS011;9121;50.926;5.340;2022-11-18T08:30:26;7.73;;;3.20;;
17991;SDS011;9121;50.926;5.340;2022-11-18T08:32:53;18.20;;;3.53;;
17991;SDS011;9121;50.926;5.340;2022-11-18T08:35:21;7.47;;;3.10;;
17991;SDS011;9121;50.926;5.340;2022-11-18T08:37:48;9.27;;;2.73;;
17991;SDS011;9121;50.926;5.340;2022-11-18T08:40:15;12.57;;;3.00;;
17991;SDS011;9121;50.926;5.340;2022-11-18T08:42:42;17.17;;;3.30;;
17991;SDS011;9121;50.926;5.340;2022-11-18T08:45:11;10.50;;;2.70;;
17991;SDS011;9121;50.926;5.340;2022-11-18T08:47:38;11.47;;;2.67;;
17991;SDS011;9121;50.926;5.340;2022-11-18T08:50:06;9.80;;;3.10;;
17991;SDS011;9121;50.926;5.340;2022-11-18T08:52:34;9.43;;;2.93;;
17991;SDS011;9121;50.926;5.340;2022-11-18T08:55:01;13.63;;;2.83;;
17991;SDS011;9121;50.926;5.340;2022-11-18T08:57:29;8.07;;;2.53;;
17991;SDS011;9121;50.926;5.340;2022-11-18T08:59:56;8.03;;;2.97;;
17991;SDS011;9121;50.926;5.340;2022-11-18T09:02:24;16.37;;;3.20;;
17991;SDS011;9121;50.926;5.340;2022-11-18T09:04:51;10.60;;;2.70;;
17991;SDS011;9121;50.926;5.340;2022-11-18T09:07:18;10.17;;;2.47;;
17991;SDS011;9121;50.926;5.340;2022-11-18T09:09:46;9.77;;;2.53;;
17991;SDS011;9121;50.926;5.340;2022-11-18T09:12:13;6.87;;;2.27;;
17991;SDS011;9121;50.926;5.340;2022-11-18T09:14:41;10.07;;;3.07;;
17991;SDS011;9121;50.926;5.340;2022-11-18T09:17:08;10.13;;;2.60;;
17991;SDS011;9121;50.926;5.340;2022-11-18T09:19:38;6.83;;;2.97;;
17991;SDS011;9121;50.926;5.340;2022-11-18T09:22:05;6.67;;;2.50;;
17991;SDS011;9121;50.926;5.340;2022-11-18T09:24:33;12.97;;;3.13;;
17991;SDS011;9121;50.926;5.340;2022-11-18T09:27:01;14.77;;;2.73;;
17991;SDS011;9121;50.926;5.340;2022-11-18T09:29:29;9.40;;;2.30;;
17991;SDS011;9121;50.926;5.340;2022-11-18T09:31:56;12.83;;;2.70;;
17991;SDS011;9121;50.926;5.340;2022-11-18T09:34:26;15.10;;;3.13;;
17991;SDS011;9121;50.926;5.340;2022-11-18T09:36:54;8.03;;;3.00;;
17991;SDS011;9121;50.926;5.340;2022-11-18T09:39:21;9.27;;;2.50;;
17991;SDS011;9121;50.926;5.340;2022-11-18T09:41:50;10.70;;;2.63;;
17991;SDS011;9121;50.926;5.340;2022-11-18T09:44:32;8.23;;;2.70;;
17991;SDS011;9121;50.926;5.340;2022-11-18T09:47:13;10.07;;;2.53;;
17991;SDS011;9121;50.926;5.340;2022-11-18T09:49:46;18.77;;;3.23;;
17991;SDS011;9121;50.926;5.340;2022-11-18T09:52:17;9.60;;;2.80;;
17991;SDS011;9121;50.926;5.340;2022-11-18T09:54:46;13.63;;;3.20;;
17991;SDS011;9121;50.926;5.340;2022-11-18T09:57:14;18.73;;;3.10;;
17991;SDS011;9121;50.926;5.340;2022-11-18T09:59:43;11.00;;;2.57;;
17991;SDS011;9121;50.926;5.340;2022-11-18T10:02:20;10.23;;;3.13;;
17991;SDS011;9121;50.926;5.340;2022-11-18T10:04:55;8.17;;;3.43;;
17991;SDS011;9121;50.926;5.340;2022-11-18T10:07:31;8.77;;;2.57;;
17991;SDS011;9121;50.926;5.340;2022-11-18T10:10:06;15.90;;;2.97;;
17991;SDS011;9121;50.926;5.340;2022-11-18T10:12:40;10.60;;;3.07;;
17991;SDS011;9121;50.926;5.340;2022-11-18T10:15:17;10.80;;;3.03;;
17991;SDS011;9121;50.926;5.340;2022-11-18T10:17:50;10.33;;;4.07;;
17991;SDS011;9121;50.926;5.340;2022-11-18T10:20:30;13.27;;;3.50;;
17991;SDS011;9121;50.926;5.340;2022-11-18T10:23:06;9.00;;;2.93;;
17991;SDS011;9121;50.926;5.340;2022-11-18T10:25:39;12.83;;;3.57;;
17991;SDS011;9121;50.926;5.340;2022-11-18T10:28:14;9.90;;;2.83;;
17991;SDS011;9121;50.926;5.340;2022-11-18T10:30:44;5.03;;;2.90;;
17991;SDS011;9121;50.926;5.340;2022-11-18T10:36:08;14.07;;;3.20;;
17991;SDS011;9121;50.926;5.340;2022-11-18T10:38:44;5.87;;;3.00;;
17991;SDS011;9121;50.926;5.340;2022-11-18T10:41:12;7.73;;;2.90;;
17991;SDS011;9121;50.926;5.340;2022-11-18T10:43:42;12.50;;;3.10;;
17991;SDS011;9121;50.926;5.340;2022-11-18T10:46:22;13.37;;;3.37;;
17991;SDS011;9121;50.926;5.340;2022-11-18T10:51:42;15.07;;;3.40;;
17991;SDS011;9121;50.926;5.340;2022-11-18T10:54:14;12.40;;;2.70;;
17991;SDS011;9121;50.926;5.340;2022-11-18T10:56:43;8.63;;;2.63;;
17991;SDS011;9121;50.926;5.340;2022-11-18T10:59:15;8.87;;;3.00;;
17991;SDS011;9121;50.926;5.340;2022-11-18T11:01:58;11.50;;;3.27;;
17991;SDS011;9121;50.926;5.340;2022-11-18T11:04:27;11.93;;;2.97;;
17991;SDS011;9121;50.926;5.340;2022-11-18T11:06:55;12.03;;;3.20;;
17991;SDS011;9121;50.926;5.340;2022-11-18T11:09:29;11.27;;;2.80;;
17991;SDS011;9121;50.926;5.340;2022-11-18T11:11:57;5.53;;;2.53;;
17991;SDS011;9121;50.926;5.340;2022-11-18T11:14:28;7.63;;;2.47;;
17991;SDS011;9121;50.926;5.340;2022-11-18T11:17:04;10.03;;;2.70;;
17991;SDS011;9121;50.926;5.340;2022-11-18T11:19:39;8.17;;;2.90;;
17991;SDS011;9121;50.926;5.340;2022-11-18T11:22:13;7.60;;;2.67;;
17991;SDS011;9121;50.926;5.340;2022-11-18T11:24:42;6.57;;;2.73;;
17991;SDS011;9121;50.926;5.340;2022-11-18T11:27:14;8.13;;;2.83;;
17991;SDS011;9121;50.926;5.340;2022-11-18T11:30:01;9.50;;;2.60;;
17991;SDS011;9121;50.926;5.340;2022-11-18T11:32:55;8.00;;;2.30;;
17991;SDS011;9121;50.926;5.340;2022-11-18T11:35:53;6.37;;;1.93;;
17991;SDS011;9121;50.926;5.340;2022-11-18T11:38:42;8.00;;;2.47;;
17991;SDS011;9121;50.926;5.340;2022-11-18T11:41:21;8.45;;;2.47;;
17991;SDS011;9121;50.926;5.340;2022-11-18T11:43:55;7.53;;;2.43;;
17991;SDS011;9121;50.926;5.340;2022-11-18T11:46:34;8.77;;;2.47;;
17991;SDS011;9121;50.926;5.340;2022-11-18T11:49:15;2.90;;;1.83;;
17991;SDS011;9121;50.926;5.340;2022-11-18T11:51:44;8.10;;;2.23;;
17991;SDS011;9121;50.926;5.340;2022-11-18T11:54:30;9.10;;;2.63;;
17991;SDS011;9121;50.926;5.340;2022-11-18T11:57:08;10.20;;;2.27;;
17991;SDS011;9121;50.926;5.340;2022-11-18T11:59:44;6.93;;;2.20;;
17991;SDS011;9121;50.926;5.340;2022-11-18T12:02:30;6.17;;;2.47;;
17991;SDS011;9121;50.926;5.340;2022-11-18T12:05:07;5.70;;;2.20;;
17991;SDS011;9121;50.926;5.340;2022-11-18T12:07:45;10.03;;;2.13;;
17991;SDS011;9121;50.926;5.340;2022-11-18T12:10:19;7.67;;;2.30;;
17991;SDS011;9121;50.926;5.340;2022-11-18T12:12:57;8.23;;;1.77;;
17991;SDS011;9121;50.926;5.340;2022-11-18T12:15:48;7.77;;;2.30;;
17991;SDS011;9121;50.926;5.340;2022-11-18T12:18:23;6.00;;;2.05;;
17991;SDS011;9121;50.926;5.340;2022-11-18T12:20:55;5.32;;;2.17;;
17991;SDS011;9121;50.926;5.340;2022-11-18T12:23:23;5.60;;;1.77;;
17991;SDS011;9121;50.926;5.340;2022-11-18T12:25:53;8.68;;;2.10;;
17991;SDS011;9121;50.926;5.340;2022-11-18T12:28:28;8.63;;;2.47;;
17991;SDS011;9121;50.926;5.340;2022-11-18T12:36:54;8.32;;;2.80;;
17991;SDS011;9121;50.926;5.340;2022-11-18T12:39:45;6.07;;;2.00;;
17991;SDS011;9121;50.926;5.340;2022-11-18T12:42:33;4.78;;;2.10;;
17991;SDS011;9121;50.926;5.340;2022-11-18T12:48:27;5.17;;;1.90;;
17991;SDS011;9121;50.926;5.340;2022-11-18T12:50:56;4.72;;;1.60;;
17991;SDS011;9121;50.926;5.340;2022-11-18T12:53:29;7.05;;;2.25;;
17991;SDS011;9121;50.926;5.340;2022-11-18T12:56:08;8.65;;;1.83;;
17991;SDS011;9121;50.926;5.340;2022-11-18T12:58:36;8.23;;;2.25;;
17991;SDS011;9121;50.926;5.340;2022-11-18T13:01:09;9.07;;;2.00;;
17991;SDS011;9121;50.926;5.340;2022-11-18T13:03:37;26.77;;;3.47;;
17991;SDS011;9121;50.926;5.340;2022-11-18T13:06:05;16.53;;;2.53;;
17991;SDS011;9121;50.926;5.340;2022-11-18T13:08:38;6.70;;;2.20;;
17991;SDS011;9121;50.926;5.340;2022-11-18T13:11:10;7.43;;;1.70;;
17991;SDS011;9121;50.926;5.340;2022-11-18T13:13:58;6.63;;;1.92;;
17991;SDS011;9121;50.926;5.340;2022-11-18T13:16:51;7.17;;;1.80;;
17991;SDS011;9121;50.926;5.340;2022-11-18T13:19:35;4.68;;;1.45;;
17991;SDS011;9121;50.926;5.340;2022-11-18T13:22:02;8.83;;;1.80;;
17991;SDS011;9121;50.926;5.340;2022-11-18T13:24:47;5.67;;;2.00;;
17991;SDS011;9121;50.926;5.340;2022-11-18T13:27:27;7.75;;;1.63;;
17991;SDS011;9121;50.926;5.340;2022-11-18T13:30:00;4.55;;;1.92;;
17991;SDS011;9121;50.926;5.340;2022-11-18T13:32:31;4.30;;;2.00;;
17991;SDS011;9121;50.926;5.340;2022-11-18T13:35:03;4.80;;;1.60;;
17991;SDS011;9121;50.926;5.340;2022-11-18T13:37:36;11.50;;;2.20;;
17991;SDS011;9121;50.926;5.340;2022-11-18T13:40:16;6.68;;;1.83;;
17991;SDS011;9121;50.926;5.340;2022-11-18T13:42:44;6.05;;;2.20;;
17991;SDS011;9121;50.926;5.340;2022-11-18T13:45:12;3.40;;;1.77;;
17991;SDS011;9121;50.926;5.340;2022-11-18T13:47:42;8.67;;;2.37;;
17991;SDS011;9121;50.926;5.340;2022-11-18T13:50:16;10.63;;;2.13;;
17991;SDS011;9121;50.926;5.340;2022-11-18T13:52:49;10.98;;;2.25;;
17991;SDS011;9121;50.926;5.340;2022-11-18T13:55:24;9.80;;;2.47;;
17991;SDS011;9121;50.926;5.340;2022-11-18T13:57:55;8.30;;;2.10;;
17991;SDS011;9121;50.926;5.340;2022-11-18T14:00:27;6.75;;;2.17;;
17991;SDS011;9121;50.926;5.340;2022-11-18T14:02:57;7.20;;;1.92;;
17991;SDS011;9121;50.926;5.340;2022-11-18T14:05:27;6.97;;;1.67;;
17991;SDS011;9121;50.926;5.340;2022-11-18T14:07:56;3.10;;;2.00;;
17991;SDS011;9121;50.926;5.340;2022-11-18T14:10:37;11.27;;;4.53;;
17991;SDS011;9121;50.926;5.340;2022-11-18T14:13:15;5.67;;;2.03;;
17991;SDS011;9121;50.926;5.340;2022-11-18T14:15:49;4.17;;;2.13;;
17991;SDS011;9121;50.926;5.340;2022-11-18T14:18:20;6.30;;;2.22;;
17991;SDS011;9121;50.926;5.340;2022-11-18T14:20:53;6.45;;;2.72;;
17991;SDS011;9121;50.926;5.340;2022-11-18T14:23:22;5.37;;;2.57;;
17991;SDS011;9121;50.926;5.340;2022-11-18T14:25:52;9.23;;;2.60;;
17991;SDS011;9121;50.926;5.340;2022-11-18T14:28:22;7.43;;;2.23;;
17991;SDS011;9121;50.926;5.340;2022-11-18T14:30:58;5.95;;;2.28;;
17991;SDS011;9121;50.926;5.340;2022-11-18T14:33:29;7.90;;;2.70;;
17991;SDS011;9121;50.926;5.340;2022-11-18T14:35:57;4.17;;;2.00;;
17991;SDS011;9121;50.926;5.340;2022-11-18T14:38:29;3.30;;;2.00;;
17991;SDS011;9121;50.926;5.340;2022-11-18T14:41:04;8.00;;;2.27;;
17991;SDS011;9121;50.926;5.340;2022-11-18T14:43:33;5.95;;;2.13;;
17991;SDS011;9121;50.926;5.340;2022-11-18T14:46:01;8.50;;;2.20;;
17991;SDS011;9121;50.926;5.340;2022-11-18T14:48:31;6.00;;;2.40;;
17991;SDS011;9121;50.926;5.340;2022-11-18T14:50:58;5.23;;;2.20;;
17991;SDS011;9121;50.926;5.340;2022-11-18T14:53:25;9.17;;;2.83;;
17991;SDS011;9121;50.926;5.340;2022-11-18T14:55:52;6.93;;;2.57;;
17991;SDS011;9121;50.926;5.340;2022-11-18T14:58:23;7.67;;;2.83;;
17991;SDS011;9121;50.926;5.340;2022-11-18T15:00:51;10.70;;;3.07;;
17991;SDS011;9121;50.926;5.340;2022-11-18T15:03:18;10.23;;;3.20;;
17991;SDS011;9121;50.926;5.340;2022-11-18T15:05:46;12.73;;;3.07;;
17991;SDS011;9121;50.926;5.340;2022-11-18T15:08:13;9.87;;;3.00;;
17991;SDS011;9121;50.926;5.340;2022-11-18T15:10:41;9.60;;;3.73;;
17991;SDS011;9121;50.926;5.340;2022-11-18T15:13:08;6.90;;;2.77;;
17991;SDS011;9121;50.926;5.340;2022-11-18T15:15:35;15.73;;;3.57;;
17991;SDS011;9121;50.926;5.340;2022-11-18T15:18:02;9.30;;;3.23;;
17991;SDS011;9121;50.926;5.340;2022-11-18T15:20:29;16.00;;;3.67;;
17991;SDS011;9121;50.926;5.340;2022-11-18T15:22:57;12.10;;;3.63;;
17991;SDS011;9121;50.926;5.340;2022-11-18T15:25:24;7.17;;;3.50;;
17991;SDS011;9121;50.926;5.340;2022-11-18T15:27:52;8.47;;;3.40;;
17991;SDS011;9121;50.926;5.340;2022-11-18T15:30:19;12.93;;;3.57;;
17991;SDS011;9121;50.926;5.340;2022-11-18T15:32:46;10.90;;;3.30;;
17991;SDS011;9121;50.926;5.340;2022-11-18T15:35:13;9.60;;;3.00;;
17991;SDS011;9121;50.926;5.340;2022-11-18T15:37:40;8.53;;;3.20;;
17991;SDS011;9121;50.926;5.340;2022-11-18T15:40:09;11.33;;;3.90;;
17991;SDS011;9121;50.926;5.340;2022-11-18T15:42:37;7.30;;;3.50;;